sensor_id;sensor_type;location;lat;lon;timestamp;temperature;humidity
5466;DHT22;2755;50.728;7.108;2022-07-23T00:01:20;18.90;99.90
5466;DHT22;2755;50.728;7.108;2022-07-23T00:06:12;18.70;99.90
5466;DHT22;2755;50.728;7.108;2022-07-23T00:11:04;18.60;99.90
5466;DHT22;2755;50.728;7.108;2022-07-23T00:13:30;18.80;99.90
5466;DHT22;2755;50.728;7.108;2022-07-23T00:15:55;18.80;99.90
5466;DHT22;2755;50.728;7.108;2022-07-23T00:18:21;18.80;99.90
5466;DHT22;2755;50.728;7.108;2022-07-23T00:20:47;19.00;99.90
5466;DHT22;2755;50.728;7.108;2022-07-23T00:25:39;18.80;99.90
5466;DHT22;2755;50.728;7.108;2022-07-23T00:28:04;18.80;99.90
5466;DHT22;2755;50.728;7.108;2022-07-23T00:30:31;18.70;99.90
5466;DHT22;2755;50.728;7.108;2022-07-23T00:33:00;19.10;99.90
5466;DHT22;2755;50.728;7.108;2022-07-23T00:35:29;18.70;99.90
5466;DHT22;2755;50.728;7.108;2022-07-23T00:40:21;18.90;99.90
5466;DHT22;2755;50.728;7.108;2022-07-23T00:42:47;19.00;99.90
5466;DHT22;2755;50.728;7.108;2022-07-23T00:47:38;18.40;99.90
5466;DHT22;2755;50.728;7.108;2022-07-23T00:50:06;18.30;99.90
5466;DHT22;2755;50.728;7.108;2022-07-23T00:52:32;19.10;99.90
5466;DHT22;2755;50.728;7.108;2022-07-23T00:55:00;19.30;99.90
5466;DHT22;2755;50.728;7.108;2022-07-23T01:02:18;18.40;99.90
5466;DHT22;2755;50.728;7.108;2022-07-23T01:04:43;18.40;99.90
5466;DHT22;2755;50.728;7.108;2022-07-23T01:09:35;18.30;99.90
5466;DHT22;2755;50.728;7.108;2022-07-23T01:12:01;18.80;99.90
5466;DHT22;2755;50.728;7.108;2022-07-23T01:14:28;18.40;99.90
5466;DHT22;2755;50.728;7.108;2022-07-23T01:16:53;18.50;99.90
5466;DHT22;2755;50.728;7.108;2022-07-23T01:19:19;18.40;99.90
5466;DHT22;2755;50.728;7.108;2022-07-23T01:21:47;18.40;99.90
5466;DHT22;2755;50.728;7.108;2022-07-23T01:24:15;18.20;99.90
5466;DHT22;2755;50.728;7.108;2022-07-23T01:26:44;18.00;99.90
5466;DHT22;2755;50.728;7.108;2022-07-23T01:29:10;17.80;99.90
5466;DHT22;2755;50.728;7.108;2022-07-23T01:34:02;19.00;99.90
5466;DHT22;2755;50.728;7.108;2022-07-23T01:38:55;17.40;99.90
5466;DHT22;2755;50.728;7.108;2022-07-23T01:41:20;18.50;99.90
5466;DHT22;2755;50.728;7.108;2022-07-23T01:43:46;18.70;99.90
5466;DHT22;2755;50.728;7.108;2022-07-23T01:46:12;18.00;99.90
5466;DHT22;2755;50.728;7.108;2022-07-23T01:48:38;18.00;99.90
5466;DHT22;2755;50.728;7.108;2022-07-23T01:51:03;17.90;99.90
5466;DHT22;2755;50.728;7.108;2022-07-23T01:55:57;16.70;99.90
5466;DHT22;2755;50.728;7.108;2022-07-23T01:58:24;18.20;99.90
5466;DHT22;2755;50.728;7.108;2022-07-23T02:00:49;17.90;99.90
5466;DHT22;2755;50.728;7.108;2022-07-23T02:03:15;18.80;99.90
5466;DHT22;2755;50.728;7.108;2022-07-23T02:05:40;17.80;99.90
5466;DHT22;2755;50.728;7.108;2022-07-23T02:08:06;18.30;99.90
5466;DHT22;2755;50.728;7.108;2022-07-23T02:10:32;18.00;99.90
5466;DHT22;2755;50.728;7.108;2022-07-23T02:12:57;18.30;99.90
5466;DHT22;2755;50.728;7.108;2022-07-23T02:15:23;18.10;99.90
5466;DHT22;2755;50.728;7.108;2022-07-23T02:17:48;18.40;99.90
5466;DHT22;2755;50.728;7.108;2022-07-23T02:20:14;17.90;99.90
5466;DHT22;2755;50.728;7.108;2022-07-23T02:22:40;17.20;99.90
5466;DHT22;2755;50.728;7.108;2022-07-23T02:25:07;18.00;99.90
5466;DHT22;2755;50.728;7.108;2022-07-23T02:27:34;17.80;99.90
5466;DHT22;2755;50.728;7.108;2022-07-23T02:30:00;18.20;99.90
5466;DHT22;2755;50.728;7.108;2022-07-23T02:32:25;18.10;99.90
5466;DHT22;2755;50.728;7.108;2022-07-23T02:34:51;17.20;99.90
5466;DHT22;2755;50.728;7.108;2022-07-23T02:37:17;17.50;99.90
5466;DHT22;2755;50.728;7.108;2022-07-23T02:39:43;16.90;99.90
5466;DHT22;2755;50.728;7.108;2022-07-23T02:42:09;17.90;99.90
5466;DHT22;2755;50.728;7.108;2022-07-23T02:44:35;18.30;99.90
5466;DHT22;2755;50.728;7.108;2022-07-23T02:51:52;17.70;99.90
5466;DHT22;2755;50.728;7.108;2022-07-23T02:54:18;17.40;99.90
5466;DHT22;2755;50.728;7.108;2022-07-23T02:56:44;17.70;99.90
5466;DHT22;2755;50.728;7.108;2022-07-23T02:59:09;17.60;99.90
5466;DHT22;2755;50.728;7.108;2022-07-23T03:04:02;17.50;99.90
5466;DHT22;2755;50.728;7.108;2022-07-23T03:06:28;17.50;99.90
5466;DHT22;2755;50.728;7.108;2022-07-23T03:08:53;17.10;99.90
5466;DHT22;2755;50.728;7.108;2022-07-23T03:11:19;17.20;99.90
5466;DHT22;2755;50.728;7.108;2022-07-23T03:13:45;17.30;99.90
5466;DHT22;2755;50.728;7.108;2022-07-23T03:16:11;17.50;99.90
5466;DHT22;2755;50.728;7.108;2022-07-23T03:18:36;16.90;99.90
5466;DHT22;2755;50.728;7.108;2022-07-23T03:23:32;17.40;99.90
5466;DHT22;2755;50.728;7.108;2022-07-23T03:25:58;17.00;99.90
5466;DHT22;2755;50.728;7.108;2022-07-23T03:28:23;16.50;99.90
5466;DHT22;2755;50.728;7.108;2022-07-23T03:30:49;16.80;99.90
5466;DHT22;2755;50.728;7.108;2022-07-23T03:33:20;16.50;99.90
5466;DHT22;2755;50.728;7.108;2022-07-23T03:35:46;16.60;99.90
5466;DHT22;2755;50.728;7.108;2022-07-23T03:38:13;16.50;99.90
5466;DHT22;2755;50.728;7.108;2022-07-23T03:40:39;16.60;99.90
5466;DHT22;2755;50.728;7.108;2022-07-23T03:43:04;15.90;99.90
5466;DHT22;2755;50.728;7.108;2022-07-23T03:45:31;16.60;99.90
5466;DHT22;2755;50.728;7.108;2022-07-23T03:50:22;16.30;99.90
5466;DHT22;2755;50.728;7.108;2022-07-23T03:52:48;17.20;99.90
5466;DHT22;2755;50.728;7.108;2022-07-23T03:55:14;15.70;99.90
5466;DHT22;2755;50.728;7.108;2022-07-23T03:57:40;16.30;99.90
5466;DHT22;2755;50.728;7.108;2022-07-23T04:00:07;16.20;99.90
5466;DHT22;2755;50.728;7.108;2022-07-23T04:02:35;16.50;99.90
5466;DHT22;2755;50.728;7.108;2022-07-23T04:05:01;16.40;99.90
5466;DHT22;2755;50.728;7.108;2022-07-23T04:09:52;16.00;99.90
5466;DHT22;2755;50.728;7.108;2022-07-23T04:12:18;16.30;99.90
5466;DHT22;2755;50.728;7.108;2022-07-23T04:14:44;16.10;99.90
5466;DHT22;2755;50.728;7.108;2022-07-23T04:17:09;16.10;99.90
5466;DHT22;2755;50.728;7.108;2022-07-23T04:19:35;16.30;99.90
5466;DHT22;2755;50.728;7.108;2022-07-23T04:22:06;16.30;99.90
5466;DHT22;2755;50.728;7.108;2022-07-23T04:24:31;16.10;99.90
5466;DHT22;2755;50.728;7.108;2022-07-23T04:29:23;16.10;99.90
5466;DHT22;2755;50.728;7.108;2022-07-23T04:31:49;16.70;99.90
5466;DHT22;2755;50.728;7.108;2022-07-23T04:34:15;16.20;99.90
5466;DHT22;2755;50.728;7.108;2022-07-23T04:44:00;16.60;99.90
5466;DHT22;2755;50.728;7.108;2022-07-23T04:48:51;16.60;99.90
5466;DHT22;2755;50.728;7.108;2022-07-23T04:51:17;16.60;99.90
5466;DHT22;2755;50.728;7.108;2022-07-23T04:53:42;16.60;99.90
5466;DHT22;2755;50.728;7.108;2022-07-23T04:56:08;17.10;99.90
5466;DHT22;2755;50.728;7.108;2022-07-23T04:58:34;15.50;99.90
5466;DHT22;2755;50.728;7.108;2022-07-23T05:00:59;16.80;99.90
5466;DHT22;2755;50.728;7.108;2022-07-23T05:03:25;16.80;99.90
5466;DHT22;2755;50.728;7.108;2022-07-23T05:05:51;17.20;99.90
5466;DHT22;2755;50.728;7.108;2022-07-23T05:08:16;17.60;99.90
5466;DHT22;2755;50.728;7.108;2022-07-23T05:10:42;17.20;99.90
5466;DHT22;2755;50.728;7.108;2022-07-23T05:13:08;17.20;99.90
5466;DHT22;2755;50.728;7.108;2022-07-23T05:15:34;17.50;99.90
5466;DHT22;2755;50.728;7.108;2022-07-23T05:17:59;18.00;99.90
5466;DHT22;2755;50.728;7.108;2022-07-23T05:22:51;17.80;99.90
5466;DHT22;2755;50.728;7.108;2022-07-23T05:25:17;18.40;99.90
5466;DHT22;2755;50.728;7.108;2022-07-23T05:27:42;18.80;99.90
5466;DHT22;2755;50.728;7.108;2022-07-23T05:30:08;18.20;99.90
5466;DHT22;2755;50.728;7.108;2022-07-23T05:32:34;18.40;99.90
5466;DHT22;2755;50.728;7.108;2022-07-23T05:42:19;19.00;99.90
5466;DHT22;2755;50.728;7.108;2022-07-23T05:47:11;18.40;99.90
5466;DHT22;2755;50.728;7.108;2022-07-23T05:49:37;18.60;99.90
5466;DHT22;2755;50.728;7.108;2022-07-23T05:52:06;18.90;99.90
5466;DHT22;2755;50.728;7.108;2022-07-23T05:54:34;18.80;99.90
5466;DHT22;2755;50.728;7.108;2022-07-23T05:57:00;19.00;99.90
5466;DHT22;2755;50.728;7.108;2022-07-23T06:01:52;19.00;99.90
5466;DHT22;2755;50.728;7.108;2022-07-23T06:04:17;19.40;99.90
5466;DHT22;2755;50.728;7.108;2022-07-23T06:06:43;20.10;99.90
5466;DHT22;2755;50.728;7.108;2022-07-23T06:09:08;19.50;99.90
5466;DHT22;2755;50.728;7.108;2022-07-23T06:14:02;20.30;99.90
5466;DHT22;2755;50.728;7.108;2022-07-23T06:16:28;20.60;99.90
5466;DHT22;2755;50.728;7.108;2022-07-23T06:18:53;20.40;99.90
5466;DHT22;2755;50.728;7.108;2022-07-23T06:21:19;19.30;99.90
5466;DHT22;2755;50.728;7.108;2022-07-23T06:23:44;20.10;99.90
5466;DHT22;2755;50.728;7.108;2022-07-23T06:28:36;20.10;99.90
5466;DHT22;2755;50.728;7.108;2022-07-23T06:31:02;20.30;99.90
5466;DHT22;2755;50.728;7.108;2022-07-23T06:33:27;21.10;99.90
5466;DHT22;2755;50.728;7.108;2022-07-23T06:38:19;20.70;99.90
5466;DHT22;2755;50.728;7.108;2022-07-23T06:43:11;22.40;99.90
5466;DHT22;2755;50.728;7.108;2022-07-23T06:45:36;21.20;99.90
5466;DHT22;2755;50.728;7.108;2022-07-23T06:48:02;23.00;99.90
5466;DHT22;2755;50.728;7.108;2022-07-23T06:50:29;22.00;99.90
5466;DHT22;2755;50.728;7.108;2022-07-23T06:55:20;23.70;99.90
5466;DHT22;2755;50.728;7.108;2022-07-23T06:57:46;24.30;99.90
5466;DHT22;2755;50.728;7.108;2022-07-23T07:02:40;24.40;99.90
5466;DHT22;2755;50.728;7.108;2022-07-23T07:05:05;24.80;99.90
5466;DHT22;2755;50.728;7.108;2022-07-23T07:07:31;25.20;99.90
5466;DHT22;2755;50.728;7.108;2022-07-23T07:09:57;24.90;99.90
5466;DHT22;2755;50.728;7.108;2022-07-23T07:14:50;24.60;99.00
5466;DHT22;2755;50.728;7.108;2022-07-23T07:19:41;25.00;97.70
5466;DHT22;2755;50.728;7.108;2022-07-23T07:22:08;25.40;99.30
5466;DHT22;2755;50.728;7.108;2022-07-23T07:24:34;25.10;98.30
5466;DHT22;2755;50.728;7.108;2022-07-23T07:34:19;26.30;97.90
5466;DHT22;2755;50.728;7.108;2022-07-23T07:39:11;26.00;95.10
5466;DHT22;2755;50.728;7.108;2022-07-23T07:41:36;26.20;94.10
5466;DHT22;2755;50.728;7.108;2022-07-23T07:44:02;26.40;93.10
5466;DHT22;2755;50.728;7.108;2022-07-23T07:46:28;26.70;92.80
5466;DHT22;2755;50.728;7.108;2022-07-23T07:51:20;26.20;92.20
5466;DHT22;2755;50.728;7.108;2022-07-23T07:53:46;25.90;91.00
5466;DHT22;2755;50.728;7.108;2022-07-23T07:58:38;25.90;93.60
5466;DHT22;2755;50.728;7.108;2022-07-23T08:01:04;25.90;91.30
5466;DHT22;2755;50.728;7.108;2022-07-23T08:03:29;26.30;91.50
5466;DHT22;2755;50.728;7.108;2022-07-23T08:05:55;25.50;91.00
5466;DHT22;2755;50.728;7.108;2022-07-23T08:08:21;25.60;90.80
5466;DHT22;2755;50.728;7.108;2022-07-23T08:10:47;26.70;90.80
5466;DHT22;2755;50.728;7.108;2022-07-23T08:13:14;26.50;92.10
5466;DHT22;2755;50.728;7.108;2022-07-23T08:15:40;26.20;91.10
5466;DHT22;2755;50.728;7.108;2022-07-23T08:18:06;28.10;90.40
5466;DHT22;2755;50.728;7.108;2022-07-23T08:20:32;26.90;86.80
5466;DHT22;2755;50.728;7.108;2022-07-23T08:23:02;26.70;90.60
5466;DHT22;2755;50.728;7.108;2022-07-23T08:25:33;26.30;90.00
5466;DHT22;2755;50.728;7.108;2022-07-23T08:28:00;26.10;89.20
5466;DHT22;2755;50.728;7.108;2022-07-23T08:30:27;26.30;91.60
5466;DHT22;2755;50.728;7.108;2022-07-23T08:33:02;26.00;88.70
5466;DHT22;2755;50.728;7.108;2022-07-23T08:35:31;25.80;91.00
5466;DHT22;2755;50.728;7.108;2022-07-23T08:37:57;26.50;91.20
5466;DHT22;2755;50.728;7.108;2022-07-23T08:40:27;26.20;89.60
5466;DHT22;2755;50.728;7.108;2022-07-23T08:45:21;26.60;90.10
5466;DHT22;2755;50.728;7.108;2022-07-23T08:47:51;26.30;90.40
5466;DHT22;2755;50.728;7.108;2022-07-23T08:50:17;26.60;91.70
5466;DHT22;2755;50.728;7.108;2022-07-23T08:52:43;27.40;88.00
5466;DHT22;2755;50.728;7.108;2022-07-23T08:55:09;27.60;89.10
5466;DHT22;2755;50.728;7.108;2022-07-23T08:57:35;27.90;88.60
5466;DHT22;2755;50.728;7.108;2022-07-23T09:02:27;27.30;83.20
5466;DHT22;2755;50.728;7.108;2022-07-23T09:04:53;27.70;82.50
5466;DHT22;2755;50.728;7.108;2022-07-23T09:12:10;28.10;80.80
5466;DHT22;2755;50.728;7.108;2022-07-23T09:14:54;28.40;82.30
5466;DHT22;2755;50.728;7.108;2022-07-23T09:17:20;28.40;82.00
5466;DHT22;2755;50.728;7.108;2022-07-23T09:22:26;28.60;83.20
5466;DHT22;2755;50.728;7.108;2022-07-23T09:25:07;28.60;80.60
5466;DHT22;2755;50.728;7.108;2022-07-23T09:30:13;28.60;81.30
5466;DHT22;2755;50.728;7.108;2022-07-23T09:32:41;29.00;80.80
5466;DHT22;2755;50.728;7.108;2022-07-23T09:37:33;29.10;78.60
5466;DHT22;2755;50.728;7.108;2022-07-23T09:40:07;29.40;75.30
5466;DHT22;2755;50.728;7.108;2022-07-23T09:42:34;29.30;75.60
5466;DHT22;2755;50.728;7.108;2022-07-23T09:45:00;28.90;75.00
5466;DHT22;2755;50.728;7.108;2022-07-23T09:47:30;28.10;80.10
5466;DHT22;2755;50.728;7.108;2022-07-23T09:52:30;28.10;78.10
5466;DHT22;2755;50.728;7.108;2022-07-23T09:55:04;28.60;76.20
5466;DHT22;2755;50.728;7.108;2022-07-23T09:57:32;27.50;76.90
5466;DHT22;2755;50.728;7.108;2022-07-23T10:00:06;28.90;80.50
5466;DHT22;2755;50.728;7.108;2022-07-23T10:02:34;29.20;77.80
5466;DHT22;2755;50.728;7.108;2022-07-23T10:05:02;29.90;76.90
5466;DHT22;2755;50.728;7.108;2022-07-23T10:07:28;29.20;73.50
5466;DHT22;2755;50.728;7.108;2022-07-23T10:09:58;29.40;74.40
5466;DHT22;2755;50.728;7.108;2022-07-23T10:12:25;29.50;74.40
5466;DHT22;2755;50.728;7.108;2022-07-23T10:15:01;29.70;73.00
5466;DHT22;2755;50.728;7.108;2022-07-23T10:17:28;29.40;70.70
5466;DHT22;2755;50.728;7.108;2022-07-23T10:19:54;29.10;74.00
5466;DHT22;2755;50.728;7.108;2022-07-23T10:22:22;29.30;74.60
5466;DHT22;2755;50.728;7.108;2022-07-23T10:28:21;29.20;73.10
5466;DHT22;2755;50.728;7.108;2022-07-23T10:36:47;29.50;74.10
5466;DHT22;2755;50.728;7.108;2022-07-23T10:39:31;29.60;75.90
5466;DHT22;2755;50.728;7.108;2022-07-23T10:42:14;29.80;68.30
5466;DHT22;2755;50.728;7.108;2022-07-23T10:44:45;30.60;73.90
5466;DHT22;2755;50.728;7.108;2022-07-23T10:49:47;29.30;71.70
5466;DHT22;2755;50.728;7.108;2022-07-23T10:57:28;28.10;66.40
5466;DHT22;2755;50.728;7.108;2022-07-23T11:02:28;28.70;68.90
5466;DHT22;2755;50.728;7.108;2022-07-23T11:04:58;28.50;71.40
5466;DHT22;2755;50.728;7.108;2022-07-23T11:07:24;28.50;75.60
5466;DHT22;2755;50.728;7.108;2022-07-23T11:09:50;28.40;70.10
5466;DHT22;2755;50.728;7.108;2022-07-23T11:18:01;28.50;63.10
5466;DHT22;2755;50.728;7.108;2022-07-23T11:20:27;28.60;63.40
5466;DHT22;2755;50.728;7.108;2022-07-23T11:22:58;28.80;65.40
5466;DHT22;2755;50.728;7.108;2022-07-23T11:30:54;29.60;67.30
5466;DHT22;2755;50.728;7.108;2022-07-23T11:33:21;29.70;70.50
5466;DHT22;2755;50.728;7.108;2022-07-23T11:35:49;29.30;62.90
5466;DHT22;2755;50.728;7.108;2022-07-23T11:40:53;29.20;66.70
5466;DHT22;2755;50.728;7.108;2022-07-23T11:43:20;28.90;64.50
5466;DHT22;2755;50.728;7.108;2022-07-23T11:48:24;28.70;61.80
5466;DHT22;2755;50.728;7.108;2022-07-23T11:50:51;28.40;65.30
5466;DHT22;2755;50.728;7.108;2022-07-23T11:53:28;29.10;68.00
5466;DHT22;2755;50.728;7.108;2022-07-23T11:55:53;29.20;61.30
5466;DHT22;2755;50.728;7.108;2022-07-23T11:58:20;30.20;63.60
5466;DHT22;2755;50.728;7.108;2022-07-23T12:03:12;29.30;61.20
5466;DHT22;2755;50.728;7.108;2022-07-23T12:05:38;29.10;63.20
5466;DHT22;2755;50.728;7.108;2022-07-23T12:08:07;29.80;61.00
5466;DHT22;2755;50.728;7.108;2022-07-23T12:10:43;30.00;62.60
5466;DHT22;2755;50.728;7.108;2022-07-23T12:13:15;30.40;62.60
5466;DHT22;2755;50.728;7.108;2022-07-23T12:15:47;30.50;63.70
5466;DHT22;2755;50.728;7.108;2022-07-23T12:18:19;31.00;61.10
5466;DHT22;2755;50.728;7.108;2022-07-23T12:20:48;31.30;61.30
5466;DHT22;2755;50.728;7.108;2022-07-23T12:23:15;31.30;61.60
5466;DHT22;2755;50.728;7.108;2022-07-23T12:25:43;31.10;58.60
5466;DHT22;2755;50.728;7.108;2022-07-23T12:28:14;31.40;58.20
5466;DHT22;2755;50.728;7.108;2022-07-23T12:30:42;31.50;59.70
5466;DHT22;2755;50.728;7.108;2022-07-23T12:33:10;31.50;56.50
5466;DHT22;2755;50.728;7.108;2022-07-23T12:35:42;31.60;56.10
5466;DHT22;2755;50.728;7.108;2022-07-23T12:40:41;31.00;57.80
5466;DHT22;2755;50.728;7.108;2022-07-23T12:43:10;31.10;58.00
5466;DHT22;2755;50.728;7.108;2022-07-23T12:45:49;31.10;57.70
5466;DHT22;2755;50.728;7.108;2022-07-23T12:48:27;31.30;56.90
5466;DHT22;2755;50.728;7.108;2022-07-23T12:51:01;31.70;58.90
5466;DHT22;2755;50.728;7.108;2022-07-23T12:53:36;31.60;52.90
5466;DHT22;2755;50.728;7.108;2022-07-23T12:56:14;31.70;55.50
5466;DHT22;2755;50.728;7.108;2022-07-23T13:06:31;31.80;55.00
5466;DHT22;2755;50.728;7.108;2022-07-23T13:08:57;31.70;51.80
5466;DHT22;2755;50.728;7.108;2022-07-23T13:11:23;31.60;52.50
5466;DHT22;2755;50.728;7.108;2022-07-23T13:21:07;31.30;51.80
5466;DHT22;2755;50.728;7.108;2022-07-23T13:23:33;31.60;52.50
5466;DHT22;2755;50.728;7.108;2022-07-23T13:25:59;31.20;53.30
5466;DHT22;2755;50.728;7.108;2022-07-23T13:28:24;31.30;52.10
5466;DHT22;2755;50.728;7.108;2022-07-23T13:30:51;31.10;53.80
5466;DHT22;2755;50.728;7.108;2022-07-23T13:33:22;31.00;49.80
5466;DHT22;2755;50.728;7.108;2022-07-23T13:35:48;30.50;51.70
5466;DHT22;2755;50.728;7.108;2022-07-23T13:38:14;30.80;49.70
5466;DHT22;2755;50.728;7.108;2022-07-23T13:40:43;28.60;51.80
5466;DHT22;2755;50.728;7.108;2022-07-23T13:43:11;30.10;53.30
5466;DHT22;2755;50.728;7.108;2022-07-23T13:50:33;29.30;55.70
5466;DHT22;2755;50.728;7.108;2022-07-23T13:53:07;29.10;53.70
5466;DHT22;2755;50.728;7.108;2022-07-23T13:55:35;28.80;57.10
5466;DHT22;2755;50.728;7.108;2022-07-23T14:00:28;28.50;55.60
5466;DHT22;2755;50.728;7.108;2022-07-23T14:05:22;28.50;63.50
5466;DHT22;2755;50.728;7.108;2022-07-23T14:07:47;28.30;60.40
5466;DHT22;2755;50.728;7.108;2022-07-23T14:10:16;28.20;57.60
5466;DHT22;2755;50.728;7.108;2022-07-23T14:12:42;27.90;59.80
5466;DHT22;2755;50.728;7.108;2022-07-23T14:15:08;27.70;59.30
5466;DHT22;2755;50.728;7.108;2022-07-23T14:22:27;27.10;59.00
5466;DHT22;2755;50.728;7.108;2022-07-23T14:27:19;25.90;61.60
5466;DHT22;2755;50.728;7.108;2022-07-23T14:34:36;27.10;59.50
5466;DHT22;2755;50.728;7.108;2022-07-23T14:37:02;26.60;61.10
5466;DHT22;2755;50.728;7.108;2022-07-23T14:39:28;27.00;61.30
5466;DHT22;2755;50.728;7.108;2022-07-23T14:41:54;26.60;62.10
5466;DHT22;2755;50.728;7.108;2022-07-23T14:44:20;26.60;61.90
5466;DHT22;2755;50.728;7.108;2022-07-23T14:49:11;26.20;60.10
5466;DHT22;2755;50.728;7.108;2022-07-23T14:51:37;25.80;61.30
5466;DHT22;2755;50.728;7.108;2022-07-23T14:54:04;26.40;60.00
5466;DHT22;2755;50.728;7.108;2022-07-23T14:56:30;26.70;61.70
5466;DHT22;2755;50.728;7.108;2022-07-23T14:58:55;26.40;62.60
5466;DHT22;2755;50.728;7.108;2022-07-23T15:01:22;26.70;62.60
5466;DHT22;2755;50.728;7.108;2022-07-23T15:03:48;26.70;63.00
5466;DHT22;2755;50.728;7.108;2022-07-23T15:08:41;26.80;59.90
5466;DHT22;2755;50.728;7.108;2022-07-23T15:11:07;26.90;61.80
5466;DHT22;2755;50.728;7.108;2022-07-23T15:13:35;27.00;62.50
5466;DHT22;2755;50.728;7.108;2022-07-23T15:16:02;26.90;63.80
5466;DHT22;2755;50.728;7.108;2022-07-23T15:18:28;26.40;60.50
5466;DHT22;2755;50.728;7.108;2022-07-23T15:20:54;26.30;62.30
5466;DHT22;2755;50.728;7.108;2022-07-23T15:23:19;26.80;62.40
5466;DHT22;2755;50.728;7.108;2022-07-23T15:30:37;26.40;62.00
5466;DHT22;2755;50.728;7.108;2022-07-23T15:33:03;26.00;60.30
5466;DHT22;2755;50.728;7.108;2022-07-23T15:37:56;26.00;60.80
5466;DHT22;2755;50.728;7.108;2022-07-23T15:40:21;26.40;63.00
5466;DHT22;2755;50.728;7.108;2022-07-23T15:42:47;26.20;61.10
5466;DHT22;2755;50.728;7.108;2022-07-23T15:45:13;26.20;62.00
5466;DHT22;2755;50.728;7.108;2022-07-23T15:52:31;26.40;64.60
5466;DHT22;2755;50.728;7.108;2022-07-23T15:54:57;26.70;61.50
5466;DHT22;2755;50.728;7.108;2022-07-23T15:57:22;26.20;60.30
5466;DHT22;2755;50.728;7.108;2022-07-23T16:04:54;26.20;60.50
5466;DHT22;2755;50.728;7.108;2022-07-23T16:07:25;26.30;61.80
5466;DHT22;2755;50.728;7.108;2022-07-23T16:09:50;26.10;62.30
5466;DHT22;2755;50.728;7.108;2022-07-23T16:14:42;26.40;61.40
5466;DHT22;2755;50.728;7.108;2022-07-23T16:21:59;26.40;62.90
5466;DHT22;2755;50.728;7.108;2022-07-23T16:24:25;26.30;61.60
5466;DHT22;2755;50.728;7.108;2022-07-23T16:26:51;26.10;63.50
5466;DHT22;2755;50.728;7.108;2022-07-23T16:31:42;25.80;64.70
5466;DHT22;2755;50.728;7.108;2022-07-23T16:34:08;25.90;62.30
5466;DHT22;2755;50.728;7.108;2022-07-23T16:36:34;25.90;61.30
5466;DHT22;2755;50.728;7.108;2022-07-23T16:39:00;25.40;63.10
5466;DHT22;2755;50.728;7.108;2022-07-23T16:43:53;26.10;64.40
5466;DHT22;2755;50.728;7.108;2022-07-23T16:48:45;25.70;62.90
5466;DHT22;2755;50.728;7.108;2022-07-23T16:51:10;25.50;63.30
5466;DHT22;2755;50.728;7.108;2022-07-23T16:53:37;25.60;61.90
5466;DHT22;2755;50.728;7.108;2022-07-23T16:56:06;25.60;64.10
5466;DHT22;2755;50.728;7.108;2022-07-23T16:58:32;25.80;62.60
5466;DHT22;2755;50.728;7.108;2022-07-23T17:00:58;25.60;63.00
5466;DHT22;2755;50.728;7.108;2022-07-23T17:03:24;24.50;64.00
5466;DHT22;2755;50.728;7.108;2022-07-23T17:05:51;25.60;61.70
5466;DHT22;2755;50.728;7.108;2022-07-23T17:08:18;25.10;63.30
5466;DHT22;2755;50.728;7.108;2022-07-23T17:10:44;24.00;62.90
5466;DHT22;2755;50.728;7.108;2022-07-23T17:13:10;25.40;62.40
5466;DHT22;2755;50.728;7.108;2022-07-23T17:15:36;25.60;64.40
5466;DHT22;2755;50.728;7.108;2022-07-23T17:18:02;25.10;62.20
5466;DHT22;2755;50.728;7.108;2022-07-23T17:20:28;24.80;62.30
5466;DHT22;2755;50.728;7.108;2022-07-23T17:25:21;24.50;61.50
5466;DHT22;2755;50.728;7.108;2022-07-23T17:27:47;25.30;62.00
5466;DHT22;2755;50.728;7.108;2022-07-23T17:30:14;25.50;63.20
5466;DHT22;2755;50.728;7.108;2022-07-23T17:32:40;24.00;66.00
5466;DHT22;2755;50.728;7.108;2022-07-23T17:35:07;25.70;66.20
5466;DHT22;2755;50.728;7.108;2022-07-23T17:37:33;25.40;64.10
5466;DHT22;2755;50.728;7.108;2022-07-23T17:39:59;25.10;64.10
5466;DHT22;2755;50.728;7.108;2022-07-23T17:42:25;25.60;68.20
5466;DHT22;2755;50.728;7.108;2022-07-23T17:44:51;25.10;65.90
5466;DHT22;2755;50.728;7.108;2022-07-23T17:49:42;25.00;65.40
5466;DHT22;2755;50.728;7.108;2022-07-23T17:52:08;24.60;64.40
5466;DHT22;2755;50.728;7.108;2022-07-23T17:54:34;24.80;65.80
5466;DHT22;2755;50.728;7.108;2022-07-23T17:57:01;25.20;65.20
5466;DHT22;2755;50.728;7.108;2022-07-23T17:59:27;24.80;67.50
5466;DHT22;2755;50.728;7.108;2022-07-23T18:04:19;25.00;64.90
5466;DHT22;2755;50.728;7.108;2022-07-23T18:06:45;24.70;65.20
5466;DHT22;2755;50.728;7.108;2022-07-23T18:09:12;23.70;62.60
5466;DHT22;2755;50.728;7.108;2022-07-23T18:11:39;24.50;65.20
5466;DHT22;2755;50.728;7.108;2022-07-23T18:14:07;24.80;67.70
5466;DHT22;2755;50.728;7.108;2022-07-23T18:18:59;25.00;66.10
5466;DHT22;2755;50.728;7.108;2022-07-23T18:21:25;24.00;66.40
5466;DHT22;2755;50.728;7.108;2022-07-23T18:26:17;23.90;69.00
5466;DHT22;2755;50.728;7.108;2022-07-23T18:28:43;24.20;66.70
5466;DHT22;2755;50.728;7.108;2022-07-23T18:31:09;24.00;66.00
5466;DHT22;2755;50.728;7.108;2022-07-23T18:33:35;23.80;69.00
5466;DHT22;2755;50.728;7.108;2022-07-23T18:38:26;24.30;67.40
5466;DHT22;2755;50.728;7.108;2022-07-23T18:40:53;23.80;70.10
5466;DHT22;2755;50.728;7.108;2022-07-23T18:43:19;24.80;68.90
5466;DHT22;2755;50.728;7.108;2022-07-23T18:48:11;23.30;70.00
5466;DHT22;2755;50.728;7.108;2022-07-23T18:50:40;23.70;67.90
5466;DHT22;2755;50.728;7.108;2022-07-23T18:55:32;23.80;69.30
5466;DHT22;2755;50.728;7.108;2022-07-23T19:02:56;23.20;72.90
5466;DHT22;2755;50.728;7.108;2022-07-23T19:05:22;22.90;72.30
5466;DHT22;2755;50.728;7.108;2022-07-23T19:10:14;23.00;70.60
5466;DHT22;2755;50.728;7.108;2022-07-23T19:12:40;23.20;72.60
5466;DHT22;2755;50.728;7.108;2022-07-23T19:15:06;22.90;73.10
5466;DHT22;2755;50.728;7.108;2022-07-23T19:17:31;22.90;71.40
5466;DHT22;2755;50.728;7.108;2022-07-23T19:22:24;22.70;72.50
5466;DHT22;2755;50.728;7.108;2022-07-23T19:37:03;22.60;72.90
5466;DHT22;2755;50.728;7.108;2022-07-23T19:39:33;22.50;75.00
5466;DHT22;2755;50.728;7.108;2022-07-23T19:41:59;22.30;74.90
5466;DHT22;2755;50.728;7.108;2022-07-23T19:46:52;22.50;74.40
5466;DHT22;2755;50.728;7.108;2022-07-23T19:49:17;22.10;75.30
5466;DHT22;2755;50.728;7.108;2022-07-23T19:51:43;22.40;76.10
5466;DHT22;2755;50.728;7.108;2022-07-23T19:56:35;22.00;77.40
5466;DHT22;2755;50.728;7.108;2022-07-23T19:59:01;22.10;77.20
5466;DHT22;2755;50.728;7.108;2022-07-23T20:01:27;21.80;78.20
5466;DHT22;2755;50.728;7.108;2022-07-23T20:06:18;22.10;79.90
5466;DHT22;2755;50.728;7.108;2022-07-23T20:08:44;21.60;80.30
5466;DHT22;2755;50.728;7.108;2022-07-23T20:11:09;22.10;79.70
5466;DHT22;2755;50.728;7.108;2022-07-23T20:13:35;22.00;82.90
5466;DHT22;2755;50.728;7.108;2022-07-23T20:16:01;21.50;82.00
5466;DHT22;2755;50.728;7.108;2022-07-23T20:20:53;21.50;82.10
5466;DHT22;2755;50.728;7.108;2022-07-23T20:23:19;21.50;83.10
5466;DHT22;2755;50.728;7.108;2022-07-23T20:25:45;20.50;82.80
5466;DHT22;2755;50.728;7.108;2022-07-23T20:28:11;21.30;84.70
5466;DHT22;2755;50.728;7.108;2022-07-23T20:33:03;21.40;87.10
5466;DHT22;2755;50.728;7.108;2022-07-23T20:35:28;21.00;89.10
5466;DHT22;2755;50.728;7.108;2022-07-23T20:37:54;21.40;90.10
5466;DHT22;2755;50.728;7.108;2022-07-23T20:40:20;20.90;90.30
5466;DHT22;2755;50.728;7.108;2022-07-23T20:42:45;21.00;91.30
5466;DHT22;2755;50.728;7.108;2022-07-23T20:45:11;20.90;92.50
5466;DHT22;2755;50.728;7.108;2022-07-23T20:47:37;21.50;92.10
5466;DHT22;2755;50.728;7.108;2022-07-23T20:50:04;21.10;93.80